NCAR-RAP Real-Time Weather Data

Output produced by METARs form (08 May 2021  15:40 UTC)
found at http://weather.rap.ucar.edu/surface/
 
KPWM 081451Z 06007KT 10SM SCT049 OVC150 11/03 A2987 RMK AO2 SLP115 T01060028 53003
KPWM 081351Z 04009KT 10SM FEW065 SCT150 OVC200 11/02 A2987 RMK AO2 SLP113 T01060022
KPWM 081251Z 01010KT 10SM SCT150 OVC200 09/02 A2987 RMK AO2 SLP113 T00890022
KPWM 081151Z 01010KT 10SM SCT150 OVC200 07/02 A2986 RMK AO2 SLP112 T00670017 10067 20028 58003
KPWM 081051Z 02006KT 10SM BKN150 OVC200 05/02 A2988 RMK AO2 SLP117 T00500017
KPWM 080951Z 00000KT 10SM BKN150 BKN200 03/02 A2987 RMK AO2 SLP114 T00280017
KPWM 080851Z 30005KT 10SM SCT150 SCT250 03/02 A2987 RMK AO2 SLP115 T00330017 56019
KPWM 080751Z AUTO 35003KT 10SM CLR 04/02 A2988 RMK AO2 SLP116 T00390022
KPWM 080651Z AUTO 35005KT 10SM CLR 04/03 A2990 RMK AO2 SLP125 T00440033
KPWM 080551Z AUTO 33003KT 10SM CLR 04/03 A2993 RMK AO2 SLP134 T00440028 10089 20033 58008
KPWM 080451Z AUTO 00000KT 10SM CLR 05/03 A2995 RMK AO2 SLP142 T00500028 401440017
KPWM 080351Z 00000KT 10SM CLR 06/03 A2995 RMK AO2 SLP143 LAST T00560028
KPWM 080251Z 00000KT 10SM CLR 06/02 A2995 RMK AO2 SLP142 T00610017 58004
KPWM 080151Z 00000KT 10SM FEW250 07/02 A2996 RMK AO2 SLP145 T00670022
KPWM 080051Z 00000KT 10SM SCT250 08/00 A2997 RMK AO2 SLP147 T00830000
KPWM 072351Z 19007KT 10SM FEW120 SCT250 09/01 A2996 RMK AO2 SLP146 T00890006 10139 20089 53003
KPWM 072251Z 16008KT 10SM FEW150 SCT250 10/M01 A2996 RMK AO2 SLP144 T01001006
KPWM 072151Z 18010G16KT 10SM FEW060 SCT250 11/M02 A2995 RMK AO2 SLP141 T01111017
KPWM 072051Z 17011KT 10SM FEW060 SCT250 12/M01 A2995 RMK AO2 SLP143 T01171006 56007
KPWM 071951Z 16012KT 10SM FEW060 SCT250 12/M01 A2996 RMK AO2 SLP145 T01221006
KPWM 071851Z 17009G17KT 10SM FEW060 SCT250 13/01 A2996 RMK AO2 SLP146 T01330006
KPWM 071751Z 17009G18KT 10SM FEW060 FEW250 14/00 A2997 RMK AO2 SLP150 T01390000 10144 20089 56014
KPWM 071651Z 11008KT 10SM FEW060 14/01 A2998 RMK AO2 SLP153 T01390006
KPWM 071551Z 10008KT 10SM FEW060 FEW250 13/00 A3000 RMK AO2 SLP158 T01330000
KPWM 071451Z VRB06KT 10SM FEW055 FEW250 13/M01 A3002 RMK AO2 SLP164 T01281006 50000
KPWM 071351Z 06005KT 10SM FEW250 12/M03 A3001 RMK AO2 SLP164 T01171028
KPWM 071251Z 04007KT 10SM FEW250 11/M02 A3002 RMK AO2 SLP164 T01111022
KPWM 071151Z 34003KT 10SM FEW060 FEW250 08/02 A3002 RMK AO2 SLP164 T00830017 10083 20017 51009
KPWM 071051Z 00000KT 10SM BKN250 05/03 A3002 RMK AO2 SLP164 T00500028
KPWM 070951Z 29003KT 10SM FEW100 BKN250 02/01 A3000 RMK AO2 SLP158 T00220006
KPWM 070851Z 32003KT 10SM BKN250 03/01 A2999 RMK AO2 SLP155 T00280006 51010
KPWM 070751Z AUTO 00000KT 10SM CLR 03/01 A2997 RMK AO2 SLP150 T00330006
KPWM 070651Z AUTO 00000KT 10SM CLR 04/01 A2997 RMK AO2 SLP149 T00440006
KPWM 070551Z AUTO 00000KT 10SM CLR 06/01 A2996 RMK AO2 SLP145 T00560006 10122 20050 53007
KPWM 070451Z AUTO 27004KT 10SM CLR 07/00 A2995 RMK AO2 SLP140 T00720000 401670056
KPWM 070351Z 28006KT 10SM CLR 07/01 A2993 RMK AO2 SLP136 LAST T00720006
KPWM 070251Z 29006KT 10SM CLR 07/01 A2994 RMK AO2 SLP137 T00720006 50015
KPWM 070151Z 00000KT 10SM CLR 09/M01 A2994 RMK AO2 SLP139 T00941006
KPWM 070051Z 28005KT 10SM CLR 11/M01 A2993 RMK AO2 SLP136 T01111006
KPWM 062351Z 33007KT 10SM SCT250 12/M02 A2989 RMK AO2 SLP122 T01221017 10167 20122 53029
KPWM 062251Z 32011G16KT 10SM FEW045 FEW250 14/M02 A2986 RMK AO2 SLP113 T01441017
KPWM 062151Z 35014KT 10SM FEW045 15/M01 A2983 RMK AO2 SLP100 T01501006
KPWM 062051Z 35014G19KT 10SM FEW045 16/00 A2981 RMK AO2 SLP093 T01610000 51007
KPWM 061951Z 32014G21KT 10SM FEW045 16/00 A2980 RMK AO2 PK WND 34027/1926 SLP091 T01560000
KPWM 061851Z 34016G23KT 10SM FEW045 16/02 A2979 RMK AO2 SLP088 T01610022
KPWM 061751Z 30013G21KT 10SM FEW060 16/02 A2979 RMK AO2 SLP086 T01610022 10161 20106 53008
KPWM 061651Z 31012G22KT 10SM SCT055 16/03 A2978 RMK AO2 SLP084 T01560033
KPWM 061551Z 34014G24KT 10SM FEW029 SCT050 15/05 A2977 RMK AO2 SLP079 T01500050